sensor_id;sensor_type;location;lat;lon;timestamp;P1;durP1;ratioP1;P2;durP2;ratioP2
59734;SDS011;64362;45.620;4.920;2023-07-31T00:02:08;3.03;;;1.50;;
59734;SDS011;64362;45.620;4.920;2023-07-31T00:04:37;4.80;;;1.83;;
59734;SDS011;64362;45.620;4.920;2023-07-31T00:07:02;5.20;;;1.50;;
59734;SDS011;64362;45.620;4.920;2023-07-31T00:09:29;4.35;;;1.60;;
59734;SDS011;64362;45.620;4.920;2023-07-31T00:11:54;4.00;;;1.45;;
59734;SDS011;64362;45.620;4.920;2023-07-31T00:14:20;3.33;;;1.35;;
59734;SDS011;64362;45.620;4.920;2023-07-31T00:16:45;3.13;;;1.58;;
59734;SDS011;64362;45.620;4.920;2023-07-31T00:19:11;2.60;;;1.30;;
59734;SDS011;64362;45.620;4.920;2023-07-31T00:21:36;3.63;;;1.90;;
59734;SDS011;64362;45.620;4.920;2023-07-31T00:24:01;4.40;;;1.55;;
59734;SDS011;64362;45.620;4.920;2023-07-31T00:26:27;4.72;;;2.05;;
59734;SDS011;64362;45.620;4.920;2023-07-31T00:28:53;3.78;;;1.88;;
59734;SDS011;64362;45.620;4.920;2023-07-31T00:31:18;6.13;;;1.98;;
59734;SDS011;64362;45.620;4.920;2023-07-31T00:33:43;4.45;;;1.70;;
59734;SDS011;64362;45.620;4.920;2023-07-31T00:36:09;4.13;;;1.63;;
59734;SDS011;64362;45.620;4.920;2023-07-31T00:38:34;4.70;;;1.88;;
59734;SDS011;64362;45.620;4.920;2023-07-31T00:41:00;5.50;;;2.30;;
59734;SDS011;64362;45.620;4.920;2023-07-31T00:43:25;4.63;;;1.75;;
59734;SDS011;64362;45.620;4.920;2023-07-31T00:45:51;3.88;;;1.80;;
59734;SDS011;64362;45.620;4.920;2023-07-31T00:48:16;3.05;;;1.60;;
59734;SDS011;64362;45.620;4.920;2023-07-31T00:50:42;4.55;;;1.85;;
59734;SDS011;64362;45.620;4.920;2023-07-31T00:53:07;3.55;;;1.98;;
59734;SDS011;64362;45.620;4.920;2023-07-31T00:55:33;3.78;;;1.42;;
59734;SDS011;64362;45.620;4.920;2023-07-31T00:57:59;4.57;;;1.80;;
59734;SDS011;64362;45.620;4.920;2023-07-31T01:00:24;4.32;;;1.80;;
59734;SDS011;64362;45.620;4.920;2023-07-31T01:02:50;3.05;;;1.60;;
59734;SDS011;64362;45.620;4.920;2023-07-31T01:05:17;6.10;;;1.98;;
59734;SDS011;64362;45.620;4.920;2023-07-31T01:10:56;3.85;;;1.80;;
59734;SDS011;64362;45.620;4.920;2023-07-31T01:13:26;6.00;;;1.90;;
59734;SDS011;64362;45.620;4.920;2023-07-31T01:15:51;3.78;;;1.60;;
59734;SDS011;64362;45.620;4.920;2023-07-31T01:18:17;4.20;;;1.65;;
59734;SDS011;64362;45.620;4.920;2023-07-31T01:20:42;6.53;;;1.90;;
59734;SDS011;64362;45.620;4.920;2023-07-31T01:23:30;4.15;;;2.10;;
59734;SDS011;64362;45.620;4.920;2023-07-31T01:26:21;4.60;;;1.70;;
59734;SDS011;64362;45.620;4.920;2023-07-31T01:29:00;3.72;;;1.50;;
59734;SDS011;64362;45.620;4.920;2023-07-31T01:31:29;4.55;;;1.65;;
59734;SDS011;64362;45.620;4.920;2023-07-31T01:33:56;3.25;;;1.60;;
59734;SDS011;64362;45.620;4.920;2023-07-31T01:36:24;5.93;;;1.92;;
59734;SDS011;64362;45.620;4.920;2023-07-31T01:38:50;3.90;;;2.00;;
59734;SDS011;64362;45.620;4.920;2023-07-31T01:41:18;2.50;;;1.48;;
59734;SDS011;64362;45.620;4.920;2023-07-31T01:43:45;5.57;;;1.77;;
59734;SDS011;64362;45.620;4.920;2023-07-31T01:46:11;3.13;;;1.85;;
59734;SDS011;64362;45.620;4.920;2023-07-31T01:48:36;2.97;;;1.60;;
59734;SDS011;64362;45.620;4.920;2023-07-31T01:51:02;3.65;;;1.67;;
59734;SDS011;64362;45.620;4.920;2023-07-31T01:53:28;5.18;;;1.60;;
59734;SDS011;64362;45.620;4.920;2023-07-31T01:55:55;7.20;;;2.08;;
59734;SDS011;64362;45.620;4.920;2023-07-31T01:58:20;3.78;;;1.50;;
59734;SDS011;64362;45.620;4.920;2023-07-31T02:00:46;5.03;;;1.85;;
59734;SDS011;64362;45.620;4.920;2023-07-31T02:03:11;4.68;;;1.90;;
59734;SDS011;64362;45.620;4.920;2023-07-31T02:05:43;3.60;;;1.52;;
59734;SDS011;64362;45.620;4.920;2023-07-31T02:08:19;3.53;;;1.80;;
59734;SDS011;64362;45.620;4.920;2023-07-31T02:10:44;5.47;;;1.83;;
59734;SDS011;64362;45.620;4.920;2023-07-31T02:13:09;6.38;;;1.98;;
59734;SDS011;64362;45.620;4.920;2023-07-31T02:15:36;4.45;;;1.80;;
59734;SDS011;64362;45.620;4.920;2023-07-31T02:18:01;4.82;;;1.55;;
59734;SDS011;64362;45.620;4.920;2023-07-31T02:20:27;5.30;;;1.70;;
59734;SDS011;64362;45.620;4.920;2023-07-31T02:22:53;4.88;;;1.75;;
59734;SDS011;64362;45.620;4.920;2023-07-31T02:25:18;5.30;;;1.70;;
59734;SDS011;64362;45.620;4.920;2023-07-31T02:27:44;4.63;;;1.83;;
59734;SDS011;64362;45.620;4.920;2023-07-31T02:30:10;5.85;;;1.80;;
59734;SDS011;64362;45.620;4.920;2023-07-31T02:32:36;2.95;;;1.73;;
59734;SDS011;64362;45.620;4.920;2023-07-31T02:35:01;4.15;;;1.63;;
59734;SDS011;64362;45.620;4.920;2023-07-31T02:37:27;4.85;;;1.85;;
59734;SDS011;64362;45.620;4.920;2023-07-31T02:39:54;3.70;;;1.60;;
59734;SDS011;64362;45.620;4.920;2023-07-31T02:42:19;3.03;;;1.70;;
59734;SDS011;64362;45.620;4.920;2023-07-31T02:44:45;4.63;;;1.70;;
59734;SDS011;64362;45.620;4.920;2023-07-31T02:47:10;5.53;;;2.28;;
59734;SDS011;64362;45.620;4.920;2023-07-31T02:49:36;4.63;;;1.80;;
59734;SDS011;64362;45.620;4.920;2023-07-31T02:52:01;4.40;;;1.58;;
59734;SDS011;64362;45.620;4.920;2023-07-31T02:54:27;3.55;;;1.58;;
59734;SDS011;64362;45.620;4.920;2023-07-31T02:56:52;5.80;;;1.80;;
59734;SDS011;64362;45.620;4.920;2023-07-31T02:59:18;5.90;;;1.73;;
59734;SDS011;64362;45.620;4.920;2023-07-31T03:01:45;3.40;;;1.85;;
59734;SDS011;64362;45.620;4.920;2023-07-31T03:04:10;3.22;;;1.80;;
59734;SDS011;64362;45.620;4.920;2023-07-31T03:06:36;3.30;;;1.67;;
59734;SDS011;64362;45.620;4.920;2023-07-31T03:09:01;3.60;;;1.40;;
59734;SDS011;64362;45.620;4.920;2023-07-31T03:11:27;4.30;;;2.38;;
59734;SDS011;64362;45.620;4.920;2023-07-31T03:13:52;4.95;;;1.70;;
59734;SDS011;64362;45.620;4.920;2023-07-31T03:16:18;3.17;;;1.63;;
59734;SDS011;64362;45.620;4.920;2023-07-31T03:18:43;2.65;;;1.77;;
59734;SDS011;64362;45.620;4.920;2023-07-31T03:21:08;3.10;;;1.50;;
59734;SDS011;64362;45.620;4.920;2023-07-31T03:23:37;4.53;;;1.70;;
59734;SDS011;64362;45.620;4.920;2023-07-31T03:26:05;4.30;;;1.77;;
59734;SDS011;64362;45.620;4.920;2023-07-31T03:28:31;3.72;;;2.00;;
59734;SDS011;64362;45.620;4.920;2023-07-31T03:30:57;4.47;;;1.80;;
59734;SDS011;64362;45.620;4.920;2023-07-31T03:33:23;2.90;;;1.50;;
59734;SDS011;64362;45.620;4.920;2023-07-31T03:35:49;2.85;;;1.55;;
59734;SDS011;64362;45.620;4.920;2023-07-31T03:38:15;3.38;;;1.58;;
59734;SDS011;64362;45.620;4.920;2023-07-31T03:40:40;5.68;;;2.67;;
59734;SDS011;64362;45.620;4.920;2023-07-31T03:43:06;4.47;;;1.80;;
59734;SDS011;64362;45.620;4.920;2023-07-31T03:45:31;4.32;;;1.60;;
59734;SDS011;64362;45.620;4.920;2023-07-31T03:47:57;3.75;;;1.83;;
59734;SDS011;64362;45.620;4.920;2023-07-31T03:50:24;3.65;;;1.52;;
59734;SDS011;64362;45.620;4.920;2023-07-31T03:52:50;4.35;;;2.08;;
59734;SDS011;64362;45.620;4.920;2023-07-31T03:55:15;3.05;;;1.50;;
59734;SDS011;64362;45.620;4.920;2023-07-31T03:57:41;4.40;;;1.80;;
59734;SDS011;64362;45.620;4.920;2023-07-31T04:00:07;4.82;;;1.67;;
59734;SDS011;64362;45.620;4.920;2023-07-31T04:02:37;3.10;;;1.60;;
59734;SDS011;64362;45.620;4.920;2023-07-31T04:05:03;4.80;;;1.55;;
59734;SDS011;64362;45.620;4.920;2023-07-31T04:07:28;3.72;;;2.03;;
59734;SDS011;64362;45.620;4.920;2023-07-31T04:09:54;5.28;;;2.00;;
59734;SDS011;64362;45.620;4.920;2023-07-31T04:12:19;5.45;;;2.10;;
59734;SDS011;64362;45.620;4.920;2023-07-31T04:14:45;4.65;;;2.47;;
59734;SDS011;64362;45.620;4.920;2023-07-31T04:17:10;3.95;;;1.70;;
59734;SDS011;64362;45.620;4.920;2023-07-31T04:19:35;3.05;;;1.63;;
59734;SDS011;64362;45.620;4.920;2023-07-31T04:22:01;4.50;;;1.60;;
59734;SDS011;64362;45.620;4.920;2023-07-31T04:24:26;5.65;;;1.90;;
59734;SDS011;64362;45.620;4.920;2023-07-31T04:26:52;3.55;;;1.60;;
59734;SDS011;64362;45.620;4.920;2023-07-31T04:29:18;2.97;;;1.50;;
59734;SDS011;64362;45.620;4.920;2023-07-31T04:31:44;3.95;;;1.52;;
59734;SDS011;64362;45.620;4.920;2023-07-31T04:34:09;2.72;;;1.60;;
59734;SDS011;64362;45.620;4.920;2023-07-31T04:36:35;4.35;;;1.50;;
59734;SDS011;64362;45.620;4.920;2023-07-31T04:39:00;3.88;;;1.75;;
59734;SDS011;64362;45.620;4.920;2023-07-31T04:41:26;4.25;;;1.70;;
59734;SDS011;64362;45.620;4.920;2023-07-31T04:43:52;3.50;;;1.70;;
59734;SDS011;64362;45.620;4.920;2023-07-31T04:46:17;3.97;;;1.58;;
59734;SDS011;64362;45.620;4.920;2023-07-31T04:48:43;5.03;;;2.00;;
59734;SDS011;64362;45.620;4.920;2023-07-31T04:51:08;3.95;;;1.70;;
59734;SDS011;64362;45.620;4.920;2023-07-31T04:53:37;4.32;;;1.70;;
59734;SDS011;64362;45.620;4.920;2023-07-31T04:56:02;5.15;;;1.98;;
59734;SDS011;64362;45.620;4.920;2023-07-31T04:58:28;4.03;;;1.55;;
59734;SDS011;64362;45.620;4.920;2023-07-31T05:00:54;4.22;;;1.90;;
59734;SDS011;64362;45.620;4.920;2023-07-31T05:03:19;4.97;;;1.65;;
59734;SDS011;64362;45.620;4.920;2023-07-31T05:05:45;3.58;;;1.70;;
59734;SDS011;64362;45.620;4.920;2023-07-31T05:08:10;4.15;;;1.70;;
59734;SDS011;64362;45.620;4.920;2023-07-31T05:10:36;4.68;;;1.80;;
59734;SDS011;64362;45.620;4.920;2023-07-31T05:13:01;5.38;;;1.83;;
59734;SDS011;64362;45.620;4.920;2023-07-31T05:15:27;2.80;;;1.50;;
59734;SDS011;64362;45.620;4.920;2023-07-31T05:17:52;4.22;;;1.67;;
59734;SDS011;64362;45.620;4.920;2023-07-31T05:20:18;5.50;;;1.83;;
59734;SDS011;64362;45.620;4.920;2023-07-31T05:22:43;3.33;;;1.70;;
59734;SDS011;64362;45.620;4.920;2023-07-31T05:25:09;5.63;;;1.90;;
59734;SDS011;64362;45.620;4.920;2023-07-31T05:27:34;4.70;;;1.67;;
59734;SDS011;64362;45.620;4.920;2023-07-31T05:30:00;3.15;;;1.60;;
59734;SDS011;64362;45.620;4.920;2023-07-31T05:32:25;4.07;;;1.70;;
59734;SDS011;64362;45.620;4.920;2023-07-31T05:34:51;3.63;;;1.90;;
59734;SDS011;64362;45.620;4.920;2023-07-31T05:37:17;4.45;;;1.52;;
59734;SDS011;64362;45.620;4.920;2023-07-31T05:39:43;4.70;;;1.80;;
59734;SDS011;64362;45.620;4.920;2023-07-31T05:42:08;3.63;;;1.67;;
59734;SDS011;64362;45.620;4.920;2023-07-31T05:44:37;3.40;;;1.70;;
59734;SDS011;64362;45.620;4.920;2023-07-31T05:47:02;2.88;;;1.67;;
59734;SDS011;64362;45.620;4.920;2023-07-31T05:49:28;3.72;;;1.80;;
59734;SDS011;64362;45.620;4.920;2023-07-31T05:51:53;4.32;;;2.05;;
59734;SDS011;64362;45.620;4.920;2023-07-31T05:54:19;3.25;;;1.60;;
59734;SDS011;64362;45.620;4.920;2023-07-31T05:56:44;4.32;;;2.15;;
59734;SDS011;64362;45.620;4.920;2023-07-31T05:59:12;4.63;;;1.88;;
59734;SDS011;64362;45.620;4.920;2023-07-31T06:01:38;4.35;;;2.08;;
59734;SDS011;64362;45.620;4.920;2023-07-31T06:04:04;5.10;;;1.90;;
59734;SDS011;64362;45.620;4.920;2023-07-31T06:06:29;5.45;;;2.20;;
59734;SDS011;64362;45.620;4.920;2023-07-31T06:08:55;5.20;;;2.75;;
59734;SDS011;64362;45.620;4.920;2023-07-31T06:11:21;6.03;;;2.63;;
59734;SDS011;64362;45.620;4.920;2023-07-31T06:13:46;5.97;;;2.90;;
59734;SDS011;64362;45.620;4.920;2023-07-31T06:16:13;5.80;;;2.70;;
59734;SDS011;64362;45.620;4.920;2023-07-31T06:18:39;5.63;;;2.70;;
59734;SDS011;64362;45.620;4.920;2023-07-31T06:21:05;9.60;;;3.78;;
59734;SDS011;64362;45.620;4.920;2023-07-31T06:23:30;10.63;;;4.43;;
59734;SDS011;64362;45.620;4.920;2023-07-31T06:25:56;10.70;;;3.78;;
59734;SDS011;64362;45.620;4.920;2023-07-31T06:28:23;8.40;;;4.03;;
59734;SDS011;64362;45.620;4.920;2023-07-31T06:30:53;7.40;;;3.88;;
59734;SDS011;64362;45.620;4.920;2023-07-31T06:33:18;9.73;;;3.55;;
59734;SDS011;64362;45.620;4.920;2023-07-31T06:35:43;7.45;;;3.65;;
59734;SDS011;64362;45.620;4.920;2023-07-31T06:38:10;7.38;;;3.97;;
59734;SDS011;64362;45.620;4.920;2023-07-31T06:40:35;9.90;;;3.60;;
59734;SDS011;64362;45.620;4.920;2023-07-31T06:43:01;14.27;;;3.70;;
59734;SDS011;64362;45.620;4.920;2023-07-31T06:45:33;13.05;;;3.70;;
59734;SDS011;64362;45.620;4.920;2023-07-31T06:47:59;13.13;;;3.88;;
59734;SDS011;64362;45.620;4.920;2023-07-31T06:50:26;10.90;;;2.95;;
59734;SDS011;64362;45.620;4.920;2023-07-31T06:52:53;8.98;;;3.00;;
59734;SDS011;64362;45.620;4.920;2023-07-31T06:55:19;8.13;;;2.60;;
59734;SDS011;64362;45.620;4.920;2023-07-31T06:57:49;7.93;;;2.88;;
59734;SDS011;64362;45.620;4.920;2023-07-31T07:00:16;6.28;;;2.63;;
59734;SDS011;64362;45.620;4.920;2023-07-31T07:02:42;7.53;;;2.25;;
59734;SDS011;64362;45.620;4.920;2023-07-31T07:05:07;5.82;;;2.45;;
59734;SDS011;64362;45.620;4.920;2023-07-31T07:07:33;8.13;;;2.60;;
59734;SDS011;64362;45.620;4.920;2023-07-31T07:09:59;4.20;;;1.88;;
59734;SDS011;64362;45.620;4.920;2023-07-31T07:12:25;3.70;;;1.83;;
59734;SDS011;64362;45.620;4.920;2023-07-31T07:14:51;5.45;;;1.98;;
59734;SDS011;64362;45.620;4.920;2023-07-31T07:17:18;5.65;;;2.20;;
59734;SDS011;64362;45.620;4.920;2023-07-31T07:19:44;3.70;;;1.65;;
59734;SDS011;64362;45.620;4.920;2023-07-31T07:22:10;6.38;;;2.20;;
59734;SDS011;64362;45.620;4.920;2023-07-31T07:24:36;4.43;;;2.05;;
59734;SDS011;64362;45.620;4.920;2023-07-31T07:27:01;5.90;;;2.08;;
59734;SDS011;64362;45.620;4.920;2023-07-31T07:29:27;5.57;;;2.25;;
59734;SDS011;64362;45.620;4.920;2023-07-31T07:31:53;3.78;;;2.10;;
59734;SDS011;64362;45.620;4.920;2023-07-31T07:34:18;6.57;;;2.17;;
59734;SDS011;64362;45.620;4.920;2023-07-31T07:36:43;5.85;;;1.92;;
59734;SDS011;64362;45.620;4.920;2023-07-31T07:39:10;7.47;;;2.35;;
59734;SDS011;64362;45.620;4.920;2023-07-31T07:41:36;4.00;;;1.85;;
59734;SDS011;64362;45.620;4.920;2023-07-31T07:44:01;5.15;;;2.20;;
59734;SDS011;64362;45.620;4.920;2023-07-31T07:46:27;7.03;;;2.13;;
59734;SDS011;64362;45.620;4.920;2023-07-31T07:48:52;4.40;;;1.80;;
59734;SDS011;64362;45.620;4.920;2023-07-31T07:51:18;4.47;;;1.75;;
59734;SDS011;64362;45.620;4.920;2023-07-31T07:53:43;6.05;;;2.40;;
59734;SDS011;64362;45.620;4.920;2023-07-31T07:56:09;7.18;;;1.90;;
59734;SDS011;64362;45.620;4.920;2023-07-31T07:58:34;5.22;;;1.80;;
59734;SDS011;64362;45.620;4.920;2023-07-31T08:01:00;3.75;;;1.70;;
59734;SDS011;64362;45.620;4.920;2023-07-31T08:03:25;2.70;;;1.40;;
59734;SDS011;64362;45.620;4.920;2023-07-31T08:05:50;3.85;;;1.77;;
59734;SDS011;64362;45.620;4.920;2023-07-31T08:08:16;4.78;;;1.70;;
59734;SDS011;64362;45.620;4.920;2023-07-31T08:10:42;4.88;;;1.58;;
59734;SDS011;64362;45.620;4.920;2023-07-31T08:13:07;4.57;;;1.80;;
59734;SDS011;64362;45.620;4.920;2023-07-31T08:15:33;3.58;;;1.60;;
59734;SDS011;64362;45.620;4.920;2023-07-31T08:17:58;3.72;;;1.65;;
59734;SDS011;64362;45.620;4.920;2023-07-31T08:20:24;4.53;;;2.00;;
59734;SDS011;64362;45.620;4.920;2023-07-31T08:22:49;3.70;;;1.73;;
59734;SDS011;64362;45.620;4.920;2023-07-31T08:25:14;8.90;;;1.85;;
59734;SDS011;64362;45.620;4.920;2023-07-31T08:27:43;4.28;;;1.60;;
59734;SDS011;64362;45.620;4.920;2023-07-31T08:30:09;3.80;;;1.75;;
59734;SDS011;64362;45.620;4.920;2023-07-31T08:32:36;5.35;;;1.90;;
59734;SDS011;64362;45.620;4.920;2023-07-31T08:35:01;4.45;;;1.70;;
59734;SDS011;64362;45.620;4.920;2023-07-31T08:37:27;4.57;;;2.00;;
59734;SDS011;64362;45.620;4.920;2023-07-31T08:39:53;3.72;;;1.50;;
59734;SDS011;64362;45.620;4.920;2023-07-31T08:42:19;7.53;;;2.05;;
59734;SDS011;64362;45.620;4.920;2023-07-31T08:44:45;3.20;;;1.63;;
59734;SDS011;64362;45.620;4.920;2023-07-31T08:47:11;6.13;;;1.67;;
59734;SDS011;64362;45.620;4.920;2023-07-31T08:49:37;4.97;;;1.98;;
59734;SDS011;64362;45.620;4.920;2023-07-31T08:52:03;4.50;;;1.70;;
59734;SDS011;64362;45.620;4.920;2023-07-31T08:54:29;4.80;;;1.73;;
59734;SDS011;64362;45.620;4.920;2023-07-31T08:56:57;5.45;;;2.00;;
59734;SDS011;64362;45.620;4.920;2023-07-31T08:59:23;3.80;;;1.58;;
59734;SDS011;64362;45.620;4.920;2023-07-31T09:01:50;6.68;;;2.08;;
59734;SDS011;64362;45.620;4.920;2023-07-31T09:04:18;4.80;;;1.50;;
59734;SDS011;64362;45.620;4.920;2023-07-31T09:06:45;5.65;;;1.88;;
59734;SDS011;64362;45.620;4.920;2023-07-31T09:09:12;5.28;;;1.67;;
59734;SDS011;64362;45.620;4.920;2023-07-31T09:11:37;6.10;;;1.80;;
59734;SDS011;64362;45.620;4.920;2023-07-31T09:14:03;5.15;;;1.75;;
59734;SDS011;64362;45.620;4.920;2023-07-31T09:16:33;5.28;;;1.83;;
59734;SDS011;64362;45.620;4.920;2023-07-31T09:18:59;3.28;;;2.03;;
59734;SDS011;64362;45.620;4.920;2023-07-31T09:21:27;5.57;;;1.90;;
59734;SDS011;64362;45.620;4.920;2023-07-31T09:23:53;4.60;;;2.13;;
59734;SDS011;64362;45.620;4.920;2023-07-31T09:28:54;4.63;;;1.80;;
59734;SDS011;64362;45.620;4.920;2023-07-31T09:31:31;6.70;;;1.70;;
59734;SDS011;64362;45.620;4.920;2023-07-31T09:33:57;5.53;;;2.05;;
59734;SDS011;64362;45.620;4.920;2023-07-31T09:36:22;8.20;;;2.00;;
59734;SDS011;64362;45.620;4.920;2023-07-31T09:38:48;4.35;;;1.60;;
59734;SDS011;64362;45.620;4.920;2023-07-31T09:41:16;5.78;;;2.13;;
59734;SDS011;64362;45.620;4.920;2023-07-31T09:43:42;5.10;;;2.05;;
59734;SDS011;64362;45.620;4.920;2023-07-31T09:46:18;5.90;;;2.47;;
59734;SDS011;64362;45.620;4.920;2023-07-31T09:48:45;5.10;;;1.90;;
59734;SDS011;64362;45.620;4.920;2023-07-31T09:51:11;5.72;;;2.22;;
59734;SDS011;64362;45.620;4.920;2023-07-31T09:53:36;5.93;;;1.98;;
59734;SDS011;64362;45.620;4.920;2023-07-31T09:56:02;6.07;;;2.45;;
59734;SDS011;64362;45.620;4.920;2023-07-31T09:58:28;6.97;;;2.22;;
59734;SDS011;64362;45.620;4.920;2023-07-31T10:00:54;5.28;;;2.00;;
59734;SDS011;64362;45.620;4.920;2023-07-31T10:03:20;7.82;;;2.95;;
59734;SDS011;64362;45.620;4.920;2023-07-31T10:05:48;4.40;;;2.28;;
59734;SDS011;64362;45.620;4.920;2023-07-31T10:08:15;6.10;;;1.90;;
59734;SDS011;64362;45.620;4.920;2023-07-31T10:10:41;8.75;;;2.47;;
59734;SDS011;64362;45.620;4.920;2023-07-31T10:13:07;4.97;;;2.30;;
59734;SDS011;64362;45.620;4.920;2023-07-31T10:15:33;8.13;;;2.22;;
59734;SDS011;64362;45.620;4.920;2023-07-31T10:17:59;6.43;;;2.63;;
59734;SDS011;64362;45.620;4.920;2023-07-31T10:20:25;5.03;;;2.28;;
59734;SDS011;64362;45.620;4.920;2023-07-31T10:22:52;5.10;;;2.67;;
59734;SDS011;64362;45.620;4.920;2023-07-31T10:25:20;6.75;;;2.50;;
59734;SDS011;64362;45.620;4.920;2023-07-31T10:27:47;7.75;;;2.20;;
59734;SDS011;64362;45.620;4.920;2023-07-31T10:30:13;6.50;;;2.30;;
59734;SDS011;64362;45.620;4.920;2023-07-31T10:32:41;6.05;;;2.40;;
59734;SDS011;64362;45.620;4.920;2023-07-31T10:35:07;6.35;;;2.35;;
59734;SDS011;64362;45.620;4.920;2023-07-31T10:37:37;5.30;;;2.25;;
59734;SDS011;64362;45.620;4.920;2023-07-31T10:40:09;9.35;;;2.38;;
59734;SDS011;64362;45.620;4.920;2023-07-31T10:42:46;5.65;;;2.17;;
59734;SDS011;64362;45.620;4.920;2023-07-31T10:48:03;6.35;;;2.28;;
59734;SDS011;64362;45.620;4.920;2023-07-31T10:50:29;6.97;;;2.40;;
59734;SDS011;64362;45.620;4.920;2023-07-31T10:53:02;4.72;;;2.45;;
59734;SDS011;64362;45.620;4.920;2023-07-31T10:55:32;8.73;;;2.55;;
59734;SDS011;64362;45.620;4.920;2023-07-31T10:58:32;5.05;;;2.22;;
59734;SDS011;64362;45.620;4.920;2023-07-31T11:00:51;8.23;;;3.40;;
59734;SDS011;64362;45.620;4.920;2023-07-31T11:03:24;4.68;;;2.35;;
59734;SDS011;64362;45.620;4.920;2023-07-31T11:06:03;5.57;;;2.70;;
59734;SDS011;64362;45.620;4.920;2023-07-31T11:08:29;10.98;;;3.50;;
59734;SDS011;64362;45.620;4.920;2023-07-31T11:13:28;5.60;;;2.55;;
59734;SDS011;64362;45.620;4.920;2023-07-31T11:15:57;10.68;;;6.35;;
59734;SDS011;64362;45.620;4.920;2023-07-31T11:18:23;17.38;;;8.70;;
59734;SDS011;64362;45.620;4.920;2023-07-31T11:20:48;11.77;;;6.03;;
59734;SDS011;64362;45.620;4.920;2023-07-31T11:23:16;6.32;;;3.30;;
59734;SDS011;64362;45.620;4.920;2023-07-31T11:25:41;10.35;;;3.63;;
59734;SDS011;64362;45.620;4.920;2023-07-31T11:28:08;6.65;;;3.47;;
59734;SDS011;64362;45.620;4.920;2023-07-31T11:30:35;5.82;;;2.60;;
59734;SDS011;64362;45.620;4.920;2023-07-31T11:33:01;5.47;;;2.72;;
59734;SDS011;64362;45.620;4.920;2023-07-31T11:35:33;5.05;;;2.50;;
59734;SDS011;64362;45.620;4.920;2023-07-31T11:38:00;6.47;;;2.60;;
59734;SDS011;64362;45.620;4.920;2023-07-31T11:40:27;6.40;;;2.83;;
59734;SDS011;64362;45.620;4.920;2023-07-31T11:42:56;5.40;;;2.50;;
59734;SDS011;64362;45.620;4.920;2023-07-31T11:45:24;4.40;;;2.50;;
59734;SDS011;64362;45.620;4.920;2023-07-31T11:47:51;7.18;;;2.72;;
59734;SDS011;64362;45.620;4.920;2023-07-31T11:50:17;6.63;;;2.60;;
59734;SDS011;64362;45.620;4.920;2023-07-31T11:52:43;5.60;;;2.60;;
59734;SDS011;64362;45.620;4.920;2023-07-31T11:55:10;7.32;;;2.92;;
59734;SDS011;64362;45.620;4.920;2023-07-31T11:57:37;5.10;;;2.50;;
59734;SDS011;64362;45.620;4.920;2023-07-31T12:00:06;7.47;;;3.13;;
59734;SDS011;64362;45.620;4.920;2023-07-31T12:02:33;6.68;;;2.72;;
59734;SDS011;64362;45.620;4.920;2023-07-31T12:04:59;6.30;;;2.55;;
59734;SDS011;64362;45.620;4.920;2023-07-31T12:07:24;6.25;;;2.78;;
59734;SDS011;64362;45.620;4.920;2023-07-31T12:09:50;6.18;;;2.83;;
59734;SDS011;64362;45.620;4.920;2023-07-31T12:12:20;5.85;;;2.60;;
59734;SDS011;64362;45.620;4.920;2023-07-31T12:14:46;5.50;;;2.78;;
59734;SDS011;64362;45.620;4.920;2023-07-31T12:17:12;5.75;;;3.28;;
59734;SDS011;64362;45.620;4.920;2023-07-31T12:19:37;8.00;;;3.30;;
59734;SDS011;64362;45.620;4.920;2023-07-31T12:22:10;6.35;;;2.78;;
59734;SDS011;64362;45.620;4.920;2023-07-31T12:24:37;6.72;;;2.55;;
59734;SDS011;64362;45.620;4.920;2023-07-31T12:27:08;5.80;;;2.95;;
59734;SDS011;64362;45.620;4.920;2023-07-31T12:29:37;6.82;;;2.80;;
59734;SDS011;64362;45.620;4.920;2023-07-31T12:32:03;7.28;;;2.97;;
59734;SDS011;64362;45.620;4.920;2023-07-31T12:34:29;7.30;;;3.10;;
59734;SDS011;64362;45.620;4.920;2023-07-31T12:36:54;5.78;;;3.20;;
59734;SDS011;64362;45.620;4.920;2023-07-31T12:39:20;6.13;;;2.83;;
59734;SDS011;64362;45.620;4.920;2023-07-31T12:41:45;7.35;;;2.60;;
59734;SDS011;64362;45.620;4.920;2023-07-31T12:44:11;5.88;;;2.92;;
59734;SDS011;64362;45.620;4.920;2023-07-31T12:46:36;8.00;;;3.00;;
59734;SDS011;64362;45.620;4.920;2023-07-31T12:49:03;7.13;;;3.03;;
59734;SDS011;64362;45.620;4.920;2023-07-31T12:51:29;5.18;;;2.60;;
59734;SDS011;64362;45.620;4.920;2023-07-31T12:53:54;5.38;;;2.58;;
59734;SDS011;64362;45.620;4.920;2023-07-31T12:56:20;5.78;;;3.03;;
59734;SDS011;64362;45.620;4.920;2023-07-31T12:58:46;7.22;;;3.20;;
59734;SDS011;64362;45.620;4.920;2023-07-31T13:01:11;5.80;;;2.70;;
59734;SDS011;64362;45.620;4.920;2023-07-31T13:03:37;7.60;;;3.25;;
59734;SDS011;64362;45.620;4.920;2023-07-31T13:06:03;5.40;;;2.75;;
59734;SDS011;64362;45.620;4.920;2023-07-31T13:08:28;6.05;;;2.97;;
59734;SDS011;64362;45.620;4.920;2023-07-31T13:10:54;9.77;;;3.35;;
59734;SDS011;64362;45.620;4.920;2023-07-31T13:13:19;10.40;;;3.35;;
59734;SDS011;64362;45.620;4.920;2023-07-31T13:15:44;10.15;;;3.80;;
59734;SDS011;64362;45.620;4.920;2023-07-31T13:18:11;7.75;;;3.30;;
59734;SDS011;64362;45.620;4.920;2023-07-31T13:20:36;6.18;;;3.35;;
59734;SDS011;64362;45.620;4.920;2023-07-31T13:23:02;8.52;;;3.45;;
59734;SDS011;64362;45.620;4.920;2023-07-31T13:25:27;6.63;;;2.95;;
59734;SDS011;64362;45.620;4.920;2023-07-31T13:27:52;11.85;;;3.20;;
59734;SDS011;64362;45.620;4.920;2023-07-31T13:30:18;12.55;;;3.70;;
59734;SDS011;64362;45.620;4.920;2023-07-31T13:32:43;7.40;;;3.00;;
59734;SDS011;64362;45.620;4.920;2023-07-31T13:35:09;8.38;;;3.58;;
59734;SDS011;64362;45.620;4.920;2023-07-31T13:37:37;10.65;;;3.17;;
59734;SDS011;64362;45.620;4.920;2023-07-31T13:40:02;12.63;;;3.55;;
59734;SDS011;64362;45.620;4.920;2023-07-31T13:42:30;10.82;;;4.03;;
59734;SDS011;64362;45.620;4.920;2023-07-31T13:44:56;12.85;;;3.38;;
59734;SDS011;64362;45.620;4.920;2023-07-31T13:47:21;11.70;;;3.75;;
59734;SDS011;64362;45.620;4.920;2023-07-31T13:49:47;19.85;;;4.07;;
59734;SDS011;64362;45.620;4.920;2023-07-31T13:52:12;12.82;;;3.83;;
59734;SDS011;64362;45.620;4.920;2023-07-31T13:54:37;14.40;;;4.13;;
59734;SDS011;64362;45.620;4.920;2023-07-31T13:57:03;19.48;;;4.20;;
59734;SDS011;64362;45.620;4.920;2023-07-31T13:59:29;13.70;;;3.83;;
59734;SDS011;64362;45.620;4.920;2023-07-31T14:01:54;14.60;;;4.45;;
59734;SDS011;64362;45.620;4.920;2023-07-31T14:04:22;10.23;;;3.78;;
59734;SDS011;64362;45.620;4.920;2023-07-31T14:06:48;16.95;;;3.85;;
59734;SDS011;64362;45.620;4.920;2023-07-31T14:09:15;14.00;;;3.88;;
59734;SDS011;64362;45.620;4.920;2023-07-31T14:11:42;12.35;;;3.60;;
59734;SDS011;64362;45.620;4.920;2023-07-31T14:14:08;13.98;;;3.83;;
59734;SDS011;64362;45.620;4.920;2023-07-31T14:16:34;12.90;;;3.50;;
59734;SDS011;64362;45.620;4.920;2023-07-31T14:19:00;13.80;;;3.42;;
59734;SDS011;64362;45.620;4.920;2023-07-31T14:21:25;14.23;;;4.40;;
59734;SDS011;64362;45.620;4.920;2023-07-31T14:23:51;17.73;;;4.53;;
59734;SDS011;64362;45.620;4.920;2023-07-31T14:26:17;16.65;;;3.88;;
59734;SDS011;64362;45.620;4.920;2023-07-31T14:28:42;16.38;;;4.22;;
59734;SDS011;64362;45.620;4.920;2023-07-31T14:31:08;11.43;;;4.03;;
59734;SDS011;64362;45.620;4.920;2023-07-31T14:33:33;12.73;;;4.10;;
59734;SDS011;64362;45.620;4.920;2023-07-31T14:36:02;10.30;;;3.45;;
59734;SDS011;64362;45.620;4.920;2023-07-31T14:38:28;11.63;;;3.50;;
59734;SDS011;64362;45.620;4.920;2023-07-31T14:40:53;11.95;;;3.45;;
59734;SDS011;64362;45.620;4.920;2023-07-31T14:43:19;11.15;;;3.53;;
59734;SDS011;64362;45.620;4.920;2023-07-31T14:45:44;9.27;;;3.50;;
59734;SDS011;64362;45.620;4.920;2023-07-31T14:48:11;11.85;;;4.22;;
59734;SDS011;64362;45.620;4.920;2023-07-31T14:50:37;9.80;;;3.20;;
59734;SDS011;64362;45.620;4.920;2023-07-31T14:53:02;9.18;;;3.45;;